Time;durP1;ratioP1;P1;durP2;ratioP2;P2;SDS_P1;SDS_P2;PMS_P1;PMS_P2;Temp;Humidity;BMP_temperature;BMP_pressure;BME280_temperature;BME280_humidity;BME280_pressure;Samples;Min_cycle;Max_cycle;Signal;HPM_P1;HPM_P2
2023/05/26 00:00:14;;;;;;;5.15;4.00;;;19.20;62.60;;;;;;4984726;28;20089;-66
2023/05/26 00:02:40;;;;;;;5.57;3.70;;;19.20;62.60;;;;;;4983064;28;20052;-66
2023/05/26 00:05:09;;;;;;;5.72;3.78;;;19.20;62.60;;;;;;4984552;28;20066;-66
2023/05/26 00:07:41;;;;;;;6.15;4.50;;;19.20;62.60;;;;;;4983274;28;20034;-66
2023/05/26 00:10:07;;;;;;;5.82;3.65;;;19.20;62.60;;;;;;4985121;28;20026;-66
2023/05/26 00:12:33;;;;;;;4.88;3.80;;;19.20;62.60;;;;;;4984082;28;20037;-66
2023/05/26 00:14:59;;;;;;;7.50;4.05;;;19.10;62.60;;;;;;4983781;28;20026;-66
2023/05/26 00:17:24;;;;;;;5.43;3.55;;;19.20;62.60;;;;;;4980140;28;20492;-66
2023/05/26 00:19:52;;;;;;;6.15;3.75;;;19.10;62.60;;;;;;4982046;28;20037;-65
2023/05/26 00:22:18;;;;;;;4.78;3.35;;;19.20;62.60;;;;;;4978532;28;20035;-66
2023/05/26 00:24:47;;;;;;;4.30;3.35;;;19.10;62.50;;;;;;4981124;28;20038;-66
2023/05/26 00:27:13;;;;;;;4.32;3.60;;;19.10;62.50;;;;;;4982313;28;20119;-67
2023/05/26 00:29:39;;;;;;;6.05;3.47;;;19.20;62.50;;;;;;4984109;28;20117;-66
2023/05/26 00:32:05;;;;;;;5.25;4.00;;;19.10;62.50;;;;;;4980119;28;20460;-66
2023/05/26 00:34:30;;;;;;;4.18;3.40;;;19.10;62.50;;;;;;4982009;28;20085;-66
2023/05/26 00:36:56;;;;;;;4.85;3.67;;;19.10;62.60;;;;;;4984595;28;20049;-66
2023/05/26 00:39:21;;;;;;;4.05;3.42;;;19.10;62.50;;;;;;4982812;28;20119;-66
2023/05/26 00:41:48;;;;;;;5.35;3.25;;;19.10;62.50;;;;;;4983617;28;20042;-66
2023/05/26 00:44:13;;;;;;;5.75;3.30;;;19.10;62.60;;;;;;4981018;28;20343;-66
2023/05/26 00:46:39;;;;;;;5.78;3.45;;;19.10;62.50;;;;;;4980883;28;20276;-66
2023/05/26 00:49:04;;;;;;;6.28;3.47;;;19.10;62.50;;;;;;4980538;28;20636;-66
2023/05/26 00:51:31;;;;;;;5.13;3.42;;;19.10;62.50;;;;;;4983318;28;20031;-66
2023/05/26 00:53:56;;;;;;;3.00;2.47;;;19.10;62.50;;;;;;4981187;28;20057;-66
2023/05/26 00:56:24;;;;;;;5.55;3.85;;;19.10;62.50;;;;;;4983073;28;20034;-66
2023/05/26 00:58:49;;;;;;;4.57;3.22;;;19.10;62.50;;;;;;4980638;28;20110;-65
2023/05/26 01:01:16;;;;;;;3.88;3.05;;;19.10;62.50;;;;;;4982702;28;20034;-66
2023/05/26 01:03:42;;;;;;;3.47;3.13;;;19.10;62.50;;;;;;4983787;28;20100;-67
2023/05/26 01:06:07;;;;;;;3.80;3.22;;;19.10;62.50;;;;;;4983476;28;20109;-66
2023/05/26 01:08:33;;;;;;;3.80;2.80;;;19.10;62.50;;;;;;4981495;28;20525;-66
2023/05/26 01:11:13;;;;;;;4.75;3.30;;;19.10;62.50;;;;;;4982678;28;20549;-64
2023/05/26 01:13:52;;;;;;;3.38;3.03;;;19.10;62.50;;;;;;4981685;28;20034;-66
2023/05/26 01:16:22;;;;;;;2.97;2.67;;;19.10;62.50;;;;;;5003798;28;20457;-66
2023/05/26 01:18:58;;;;;;;4.03;3.00;;;19.10;62.50;;;;;;5003204;28;20140;-65
2023/05/26 01:21:27;;;;;;;4.68;3.25;;;19.10;62.50;;;;;;4998637;28;20030;-66
2023/05/26 01:24:11;;;;;;;3.58;3.22;;;19.10;62.50;;;;;;5001635;28;20064;-66
2023/05/26 01:27:03;;;;;;;3.25;2.95;;;19.10;62.50;;;;;;5013958;28;20141;-66
2023/05/26 01:29:30;;;;;;;3.15;2.80;;;19.00;62.50;;;;;;5003448;28;20038;-66
2023/05/26 01:32:06;;;;;;;4.07;3.47;;;19.10;62.50;;;;;;4999618;28;20516;-65
2023/05/26 01:34:32;;;;;;;4.03;3.35;;;19.10;62.50;;;;;;5000646;28;20401;-66
2023/05/26 01:36:57;;;;;;;4.13;3.55;;;19.00;62.40;;;;;;5001989;28;20029;-66
2023/05/26 01:39:23;;;;;;;4.10;3.00;;;19.10;62.50;;;;;;5002062;28;20030;-66
2023/05/26 01:42:11;;;;;;;5.88;3.60;;;19.00;62.40;;;;;;5001777;28;20196;-66
2023/05/26 01:44:54;;;;;;;2.53;2.33;;;19.10;62.50;;;;;;5001272;28;20061;-66
2023/05/26 01:47:21;;;;;;;3.75;2.92;;;19.10;62.50;;;;;;5001719;28;20559;-67
2023/05/26 01:49:49;;;;;;;3.55;3.10;;;19.10;62.40;;;;;;5001781;28;20034;-66
2023/05/26 01:52:18;;;;;;;3.83;3.03;;;19.10;62.50;;;;;;4999371;28;20578;-64
2023/05/26 01:54:59;;;;;;;4.10;2.92;;;19.00;62.40;;;;;;4999264;28;20034;-66
2023/05/26 01:57:26;;;;;;;3.20;2.88;;;19.10;63.10;;;;;;4996446;28;20121;-67
2023/05/26 01:59:52;;;;;;;3.50;2.75;;;19.10;62.50;;;;;;4996582;28;20665;-66
2023/05/26 02:02:18;;;;;;;4.03;2.95;;;19.00;62.50;;;;;;4998906;28;20033;-66
2023/05/26 02:04:43;;;;;;;4.75;3.10;;;19.00;62.40;;;;;;5002056;28;20037;-67
2023/05/26 02:07:09;;;;;;;4.72;3.25;;;19.00;62.50;;;;;;4998602;28;20036;-66
2023/05/26 02:09:35;;;;;;;3.85;3.05;;;19.00;62.40;;;;;;5000420;28;20141;-66
2023/05/26 02:12:01;;;;;;;4.35;2.70;;;19.00;62.40;;;;;;5001052;28;20025;-66
2023/05/26 02:14:26;;;;;;;3.03;2.72;;;19.00;62.50;;;;;;5003929;28;20431;-65
2023/05/26 02:16:52;;;;;;;4.63;2.38;;;19.00;62.40;;;;;;5002417;28;20098;-66
2023/05/26 02:19:18;;;;;;;3.38;2.92;;;19.00;62.40;;;;;;4999932;28;20042;-66
2023/05/26 02:21:43;;;;;;;2.72;2.45;;;19.00;62.50;;;;;;5001599;28;20034;-67
2023/05/26 02:24:09;;;;;;;3.60;2.60;;;19.00;62.40;;;;;;5004484;28;20571;-66
2023/05/26 02:26:35;;;;;;;3.10;2.65;;;19.00;62.50;;;;;;4999334;28;20040;-66
2023/05/26 02:29:01;;;;;;;3.35;2.83;;;19.00;62.40;;;;;;5002927;28;20022;-66
2023/05/26 02:31:27;;;;;;;3.35;3.05;;;19.00;62.50;;;;;;5003996;28;20088;-66
2023/05/26 02:33:52;;;;;;;4.18;3.10;;;19.00;62.40;;;;;;5006217;28;20030;-66
2023/05/26 02:36:18;;;;;;;3.53;2.50;;;19.00;62.40;;;;;;5002530;28;20121;-66
2023/05/26 02:38:43;;;;;;;2.60;2.40;;;19.00;62.40;;;;;;5006800;28;20088;-67
2023/05/26 02:41:09;;;;;;;3.15;2.80;;;19.00;62.40;;;;;;5005646;28;20068;-67
2023/05/26 02:43:35;;;;;;;3.72;3.08;;;19.00;62.40;;;;;;5005124;28;20062;-66
2023/05/26 02:46:00;;;;;;;2.55;2.33;;;19.00;62.40;;;;;;5004822;28;20037;-66
2023/05/26 02:48:26;;;;;;;3.15;2.20;;;18.90;62.50;;;;;;5007145;28;20038;-66
2023/05/26 02:50:52;;;;;;;3.83;2.90;;;19.00;62.40;;;;;;5008103;28;20105;-66
2023/05/26 02:53:18;;;;;;;3.30;2.78;;;19.00;62.50;;;;;;5002468;28;20034;-66
2023/05/26 02:55:44;;;;;;;3.40;2.50;;;18.90;62.40;;;;;;5006717;28;20033;-66
2023/05/26 02:58:11;;;;;;;3.63;3.00;;;18.90;62.40;;;;;;5002434;28;20091;-66
2023/05/26 03:00:36;;;;;;;3.10;2.70;;;18.90;62.40;;;;;;5003482;28;20053;-66
2023/05/26 03:03:02;;;;;;;3.15;2.63;;;18.90;62.40;;;;;;5003874;28;20065;-66
2023/05/26 03:05:27;;;;;;;2.90;2.45;;;18.90;62.40;;;;;;5004028;28;20042;-65
2023/05/26 03:07:52;;;;;;;3.00;2.25;;;18.90;62.40;;;;;;5005197;28;20448;-66
2023/05/26 03:10:18;;;;;;;3.08;2.72;;;18.90;62.40;;;;;;5000667;28;20072;-66
2023/05/26 03:12:43;;;;;;;5.88;3.50;;;18.90;62.50;;;;;;5005316;28;20464;-68
2023/05/26 03:15:11;;;;;;;4.10;2.75;;;18.90;62.50;;;;;;5002276;28;20053;-67
2023/05/26 03:17:37;;;;;;;3.22;2.30;;;18.90;62.40;;;;;;5003718;28;20113;-67
2023/05/26 03:20:04;;;;;;;3.92;2.40;;;18.90;62.40;;;;;;5005457;28;20126;-67
2023/05/26 03:22:29;;;;;;;4.03;2.50;;;18.90;62.40;;;;;;5006318;28;20040;-67
2023/05/26 03:24:55;;;;;;;3.55;3.10;;;18.90;62.40;;;;;;5000882;28;20046;-67
2023/05/26 03:27:22;;;;;;;2.80;2.50;;;18.90;62.40;;;;;;5003604;28;20068;-67
2023/05/26 03:29:48;;;;;;;3.35;2.50;;;18.90;62.40;;;;;;5003115;28;20168;-67
2023/05/26 03:32:13;;;;;;;3.33;2.88;;;18.90;62.40;;;;;;5005994;28;20603;-67
2023/05/26 03:34:39;;;;;;;4.15;2.25;;;18.90;62.30;;;;;;5004031;28;20092;-67
2023/05/26 03:37:06;;;;;;;2.92;2.53;;;18.90;62.40;;;;;;5003494;28;20030;-67
2023/05/26 03:39:31;;;;;;;3.75;2.58;;;18.90;62.40;;;;;;5005762;28;20092;-67
2023/05/26 03:41:57;;;;;;;2.75;2.38;;;18.90;62.70;;;;;;5002643;28;20076;-67
2023/05/26 03:44:23;;;;;;;2.92;2.60;;;18.90;62.30;;;;;;5002070;28;20081;-68
2023/05/26 03:46:49;;;;;;;2.58;2.38;;;18.90;62.40;;;;;;5005646;28;20072;-68
2023/05/26 03:49:14;;;;;;;3.75;2.47;;;18.90;62.40;;;;;;5001037;28;20066;-68
2023/05/26 03:51:40;;;;;;;2.72;2.47;;;18.90;62.30;;;;;;5004207;28;20045;-68
2023/05/26 03:54:06;;;;;;;4.47;2.55;;;18.90;62.40;;;;;;5005485;28;20429;-67
2023/05/26 03:56:32;;;;;;;2.90;2.40;;;18.90;62.30;;;;;;5000183;28;20163;-68
2023/05/26 03:58:57;;;;;;;2.85;2.38;;;18.90;62.30;;;;;;5005078;28;20029;-67
2023/05/26 04:01:24;;;;;;;2.58;2.38;;;18.90;62.30;;;;;;4999411;28;20497;-68
2023/05/26 04:03:50;;;;;;;2.95;2.28;;;18.90;62.30;;;;;;5001196;28;20525;-68
2023/05/26 04:06:15;;;;;;;2.60;2.40;;;18.90;62.30;;;;;;5003200;28;20042;-69
2023/05/26 04:08:41;;;;;;;2.80;2.50;;;18.90;62.30;;;;;;5004947;28;20022;-68
2023/05/26 04:11:06;;;;;;;3.00;2.67;;;18.90;62.30;;;;;;4998421;28;20035;-68
2023/05/26 04:13:36;;;;;;;2.55;2.25;;;18.90;62.30;;;;;;5003674;28;20176;-68
2023/05/26 04:16:02;;;;;;;4.10;2.65;;;18.90;62.30;;;;;;5005006;28;20044;-68
2023/05/26 04:18:27;;;;;;;2.60;2.35;;;18.90;62.30;;;;;;5006542;28;20465;-67
2023/05/26 04:20:53;;;;;;;5.10;2.03;;;18.90;62.30;;;;;;5003796;28;20441;-67
2023/05/26 04:23:18;;;;;;;3.38;2.45;;;18.90;62.30;;;;;;5002903;28;20188;-68
2023/05/26 04:25:44;;;;;;;3.97;2.58;;;18.90;62.90;;;;;;5002496;28;20030;-68
2023/05/26 04:28:09;;;;;;;2.92;2.60;;;18.90;62.20;;;;;;5004315;28;20040;-68
2023/05/26 04:30:40;;;;;;;4.22;2.85;;;18.90;62.20;;;;;;5005349;28;20160;-68
2023/05/26 04:33:07;;;;;;;2.45;2.17;;;18.90;62.10;;;;;;5002799;28;20027;-68
2023/05/26 04:35:33;;;;;;;2.92;2.38;;;18.90;62.10;;;;;;5006207;28;20030;-68
2023/05/26 04:37:59;;;;;;;2.70;2.35;;;18.90;62.00;;;;;;5006528;28;20707;-68
2023/05/26 04:40:25;;;;;;;2.70;2.50;;;18.90;62.10;;;;;;5005896;28;20117;-67
2023/05/26 04:42:50;;;;;;;2.38;1.98;;;19.00;62.10;;;;;;5002315;28;20529;-68
2023/05/26 04:45:17;;;;;;;2.92;2.53;;;18.90;62.00;;;;;;5004457;28;21248;-67
2023/05/26 04:47:43;;;;;;;3.58;2.78;;;19.00;62.10;;;;;;5002196;28;20660;-68
2023/05/26 04:50:12;;;;;;;2.75;2.35;;;18.90;62.10;;;;;;5001391;28;20037;-67
2023/05/26 04:52:41;;;;;;;3.08;2.47;;;18.90;62.20;;;;;;5000692;28;20036;-69
2023/05/26 04:55:07;;;;;;;3.25;2.50;;;18.90;62.20;;;;;;5000814;28;20045;-68
2023/05/26 04:57:32;;;;;;;3.05;2.30;;;18.90;62.10;;;;;;5003657;28;20045;-67
2023/05/26 04:59:58;;;;;;;3.28;2.47;;;18.90;62.20;;;;;;5002928;28;20410;-67
2023/05/26 05:02:23;;;;;;;2.30;2.10;;;18.90;62.10;;;;;;5004224;28;20124;-68
2023/05/26 05:04:49;;;;;;;2.88;2.40;;;18.90;62.10;;;;;;5004888;28;20037;-68
2023/05/26 05:07:14;;;;;;;2.85;2.40;;;18.90;62.00;;;;;;5005655;28;20044;-68
2023/05/26 05:09:40;;;;;;;2.50;2.30;;;19.00;62.10;;;;;;5002171;28;20439;-69
2023/05/26 05:12:06;;;;;;;2.58;2.38;;;19.00;62.00;;;;;;4999760;28;20040;-69
2023/05/26 05:14:32;;;;;;;2.90;2.20;;;19.10;62.00;;;;;;5001936;28;20034;-70
2023/05/26 05:16:58;;;;;;;2.60;2.17;;;19.10;62.00;;;;;;5006496;28;20037;-70
2023/05/26 05:19:23;;;;;;;2.92;2.50;;;19.10;61.80;;;;;;5002234;28;20404;-68
2023/05/26 05:21:49;;;;;;;4.07;2.90;;;19.10;61.80;;;;;;5003220;28;20072;-69
2023/05/26 05:24:14;;;;;;;3.25;2.85;;;19.10;61.80;;;;;;5003350;28;20480;-68
2023/05/26 05:26:40;;;;;;;3.63;2.40;;;19.10;61.80;;;;;;5003815;28;20038;-69
2023/05/26 05:29:07;;;;;;;2.58;2.10;;;19.10;61.80;;;;;;5004442;28;20026;-72
2023/05/26 05:31:33;;;;;;;4.97;2.58;;;19.10;62.00;;;;;;5002177;28;20030;-67
2023/05/26 05:33:58;;;;;;;3.10;2.80;;;19.20;62.00;;;;;;5001323;28;20030;-68
2023/05/26 05:36:24;;;;;;;3.58;3.05;;;19.20;62.20;;;;;;5003309;28;20038;-69
2023/05/26 05:38:49;;;;;;;4.90;2.30;;;19.20;62.60;;;;;;4989194;28;20061;-68
2023/05/26 05:41:15;;;;;;;3.67;2.35;;;19.20;62.30;;;;;;5014142;28;20026;-70
2023/05/26 05:43:40;;;;;;;5.07;2.70;;;19.30;62.40;;;;;;5004111;28;20029;-71
2023/05/26 05:46:06;;;;;;;2.97;2.20;;;19.30;62.40;;;;;;5003552;28;20042;-70
2023/05/26 05:48:31;;;;;;;5.45;2.55;;;19.40;62.60;;;;;;5003746;28;20521;-70
2023/05/26 05:50:57;;;;;;;3.97;2.08;;;19.40;62.50;;;;;;5000895;28;20022;-67
2023/05/26 05:53:22;;;;;;;3.50;2.35;;;19.40;62.50;;;;;;5000500;28;20030;-69
2023/05/26 05:55:48;;;;;;;3.70;2.10;;;19.40;62.40;;;;;;5003280;28;20034;-70
2023/05/26 05:58:14;;;;;;;4.05;2.17;;;19.40;62.40;;;;;;5002981;28;20109;-68
2023/05/26 06:00:40;;;;;;;4.57;2.28;;;19.50;62.40;;;;;;4999840;28;20105;-70
2023/05/26 06:03:05;;;;;;;2.72;2.47;;;19.50;62.40;;;;;;5002376;28;20109;-68
2023/05/26 06:05:31;;;;;;;2.80;2.55;;;19.50;62.30;;;;;;4996740;28;20449;-68
2023/05/26 06:07:56;;;;;;;3.20;2.33;;;19.50;63.00;;;;;;5003699;28;20088;-70
2023/05/26 06:10:22;;;;;;;5.40;2.17;;;19.50;62.40;;;;;;4995437;28;20038;-69
2023/05/26 06:12:47;;;;;;;4.15;2.50;;;19.50;62.40;;;;;;5000774;28;20053;-68
2023/05/26 06:15:13;;;;;;;5.65;2.55;;;19.50;62.50;;;;;;5003280;28;20022;-68
2023/05/26 06:17:38;;;;;;;7.78;2.40;;;19.50;62.50;;;;;;5001466;28;20611;-69
2023/05/26 06:20:04;;;;;;;2.90;2.08;;;19.50;62.50;;;;;;5000398;28;20517;-67
2023/05/26 06:22:30;;;;;;;3.50;2.50;;;19.50;62.40;;;;;;4998328;28;20040;-68
2023/05/26 06:24:55;;;;;;;5.30;3.30;;;19.50;62.50;;;;;;5002747;28;20113;-67
2023/05/26 06:27:21;;;;;;;6.82;3.97;;;19.50;62.60;;;;;;5002760;28;20666;-68
2023/05/26 06:29:46;;;;;;;6.15;4.05;;;19.50;62.80;;;;;;4998364;28;20120;-67
2023/05/26 06:32:12;;;;;;;7.25;5.80;;;19.50;62.80;;;;;;5001406;28;20033;-67
2023/05/26 06:34:37;;;;;;;9.00;5.65;;;19.50;62.90;;;;;;5002812;28;20501;-67
2023/05/26 06:37:03;;;;;;;17.92;7.28;;;19.50;62.90;;;;;;4998410;28;20032;-67
2023/05/26 06:39:28;;;;;;;19.35;8.60;;;19.50;62.90;;;;;;4998302;28;20044;-67
2023/05/26 06:41:54;;;;;;;20.05;9.90;;;19.50;63.10;;;;;;4998467;28;20076;-67
2023/05/26 06:44:19;;;;;;;19.40;9.38;;;19.50;62.90;;;;;;4995893;28;20038;-68
2023/05/26 06:46:45;;;;;;;21.23;8.95;;;19.50;63.20;;;;;;5003084;28;20065;-68
2023/05/26 06:49:11;;;;;;;23.50;10.18;;;19.50;63.10;;;;;;4999228;28;20042;-69
2023/05/26 06:51:36;;;;;;;15.70;8.55;;;19.50;63.30;;;;;;4997212;28;20591;-69
2023/05/26 06:54:02;;;;;;;17.60;9.25;;;19.50;63.10;;;;;;4995563;28;20041;-69
2023/05/26 06:56:27;;;;;;;26.20;9.98;;;19.50;63.30;;;;;;5001034;28;20192;-68
2023/05/26 06:58:53;;;;;;;19.85;9.52;;;19.50;63.10;;;;;;4999189;28;20034;-69
2023/05/26 07:01:18;;;;;;;20.02;8.95;;;19.50;63.10;;;;;;5000251;28;20049;-69
2023/05/26 07:03:44;;;;;;;21.27;9.07;;;19.50;63.00;;;;;;5002412;28;20153;-69
2023/05/26 07:06:09;;;;;;;22.38;9.75;;;19.50;62.90;;;;;;5001862;28;20136;-69
2023/05/26 07:08:35;;;;;;;21.10;8.95;;;19.50;63.00;;;;;;4998495;28;20487;-69
2023/05/26 07:11:00;;;;;;;22.02;9.52;;;19.50;62.90;;;;;;5000802;28;20306;-68
2023/05/26 07:13:26;;;;;;;21.52;8.57;;;19.50;62.80;;;;;;5001958;28;20469;-69
2023/05/26 07:15:52;;;;;;;21.38;9.30;;;19.50;62.80;;;;;;5007425;28;20512;-69
2023/05/26 07:18:17;;;;;;;17.42;9.45;;;19.50;62.80;;;;;;5007675;28;20107;-70
2023/05/26 07:20:43;;;;;;;22.45;9.75;;;19.40;62.70;;;;;;5005212;28;20143;-69
2023/05/26 07:23:08;;;;;;;19.10;9.95;;;19.50;63.20;;;;;;5007908;28;20093;-69
2023/05/26 07:25:34;;;;;;;20.77;9.68;;;19.50;63.20;;;;;;5004665;28;20393;-69
2023/05/26 07:28:00;;;;;;;16.95;8.20;;;19.50;62.80;;;;;;5004133;28;20081;-68
2023/05/26 07:30:25;;;;;;;15.40;8.68;;;19.50;62.70;;;;;;5004000;28;20539;-70
2023/05/26 07:32:50;;;;;;;17.45;8.18;;;19.50;62.70;;;;;;5000417;28;20033;-69
2023/05/26 07:35:16;;;;;;;17.35;8.40;;;19.40;62.70;;;;;;5004207;28;20030;-69
2023/05/26 07:37:42;;;;;;;15.55;8.98;;;19.50;62.80;;;;;;4997122;28;20711;-69
2023/05/26 07:40:07;;;;;;;17.60;8.75;;;19.40;62.70;;;;;;5004841;28;20378;-69
2023/05/26 07:42:33;;;;;;;16.63;8.43;;;19.40;62.60;;;;;;5003686;28;20025;-69
2023/05/26 07:45:00;;;;;;;15.27;7.35;;;19.40;62.50;;;;;;5003194;28;20168;-68
2023/05/26 07:47:29;;;;;;;13.75;6.95;;;19.40;62.70;;;;;;5003046;28;20041;-69
2023/05/26 07:49:55;;;;;;;18.08;9.65;;;19.40;62.70;;;;;;5003028;28;20149;-69
2023/05/26 07:52:20;;;;;;;14.35;7.07;;;19.40;62.60;;;;;;5003156;28;20037;-68
2023/05/26 07:54:47;;;;;;;13.27;7.55;;;19.40;62.60;;;;;;5003887;28;20489;-67
2023/05/26 07:57:12;;;;;;;15.98;7.28;;;19.40;62.60;;;;;;5002272;28;20128;-68
2023/05/26 07:59:38;;;;;;;13.10;7.68;;;19.40;62.60;;;;;;4995452;28;20065;-68
2023/05/26 08:02:03;;;;;;;13.57;7.32;;;19.40;62.50;;;;;;4999099;28;20022;-68
2023/05/26 08:04:29;;;;;;;11.88;7.35;;;19.40;62.70;;;;;;5001389;28;20037;-68
2023/05/26 08:06:54;;;;;;;18.35;7.93;;;19.40;62.70;;;;;;5000967;28;20034;-67
2023/05/26 08:09:20;;;;;;;13.95;7.47;;;19.40;62.60;;;;;;5001948;28;20022;-68
2023/05/26 08:11:46;;;;;;;12.93;6.72;;;19.40;62.60;;;;;;5002832;28;20052;-67
2023/05/26 08:14:11;;;;;;;10.90;6.50;;;19.40;62.70;;;;;;5001968;28;20120;-67
2023/05/26 08:16:36;;;;;;;12.75;6.93;;;19.40;62.60;;;;;;5000127;28;20160;-65
2023/05/26 08:19:02;;;;;;;15.00;7.35;;;19.40;62.60;;;;;;5003662;28;20564;-67
2023/05/26 08:21:27;;;;;;;10.57;6.30;;;19.40;62.60;;;;;;5003765;28;20022;-67
2023/05/26 08:23:53;;;;;;;9.25;6.75;;;19.40;62.60;;;;;;5003560;28;20034;-67
2023/05/26 08:26:18;;;;;;;10.18;6.57;;;19.40;62.60;;;;;;5002741;28;20125;-68
2023/05/26 08:28:44;;;;;;;12.65;6.20;;;19.40;62.60;;;;;;5007123;28;20037;-66
2023/05/26 08:31:09;;;;;;;16.42;6.95;;;19.40;62.60;;;;;;5004246;28;20036;-67
2023/05/26 08:33:35;;;;;;;10.40;6.00;;;19.40;62.60;;;;;;5002326;28;20026;-67
2023/05/26 08:36:01;;;;;;;11.05;6.10;;;19.30;62.50;;;;;;4998785;28;20480;-67
2023/05/26 08:38:26;;;;;;;11.88;6.30;;;19.30;62.50;;;;;;5000546;28;20049;-65
2023/05/26 08:40:56;;;;;;;11.77;6.53;;;19.30;63.10;;;;;;5002145;28;20026;-66
2023/05/26 08:43:27;;;;;;;10.30;6.28;;;19.40;62.60;;;;;;5003608;28;20030;-66
2023/05/26 08:45:53;;;;;;;11.70;6.05;;;19.30;62.60;;;;;;5002238;28;20037;-68
2023/05/26 08:48:18;;;;;;;9.57;5.22;;;19.30;62.60;;;;;;4999368;28;20042;-65
2023/05/26 08:50:51;;;;;;;10.85;6.13;;;19.30;62.50;;;;;;5002981;28;20030;-65
2023/05/26 08:53:16;;;;;;;10.88;5.50;;;19.30;62.50;;;;;;5004124;28;20037;-67
2023/05/26 08:55:42;;;;;;;11.35;6.20;;;19.30;62.50;;;;;;5001355;28;20026;-68
2023/05/26 08:58:09;;;;;;;9.10;6.00;;;19.30;62.60;;;;;;5001774;28;20373;-68
2023/05/26 09:00:35;;;;;;;9.48;5.22;;;19.30;62.50;;;;;;4999518;28;20041;-67
2023/05/26 09:03:02;;;;;;;10.23;5.75;;;19.30;62.60;;;;;;4998178;28;20026;-67
2023/05/26 09:05:31;;;;;;;9.32;5.82;;;19.30;62.60;;;;;;5001321;28;20621;-67
2023/05/26 09:07:56;;;;;;;8.70;5.05;;;19.30;62.60;;;;;;4996449;28;20030;-64
2023/05/26 09:10:30;;;;;;;7.68;5.20;;;19.30;62.50;;;;;;5000478;28;20808;-68
2023/05/26 09:13:10;;;;;;;9.05;5.75;;;19.30;62.60;;;;;;5000048;28;20038;-67
2023/05/26 09:15:37;;;;;;;11.23;5.95;;;19.30;62.60;;;;;;5000792;28;20030;-69
2023/05/26 09:18:07;;;;;;;8.43;5.30;;;19.30;62.70;;;;;;5001104;28;20022;-65
2023/05/26 09:20:38;;;;;;;9.55;6.25;;;19.30;62.70;;;;;;5001812;28;20033;-68
2023/05/26 09:23:04;;;;;;;9.45;5.25;;;19.30;62.60;;;;;;5003582;28;20081;-68
2023/05/26 09:25:37;;;;;;;6.47;4.68;;;19.30;62.50;;;;;;5001752;28;20018;-64
2023/05/26 09:28:09;;;;;;;6.10;4.40;;;19.30;62.60;;;;;;4995649;28;20548;-67
2023/05/26 09:30:45;;;;;;;7.15;4.50;;;19.30;62.70;;;;;;5001065;28;20061;-68
2023/05/26 09:33:19;;;;;;;7.97;5.10;;;19.30;62.60;;;;;;4993696;28;20649;-67
2023/05/26 09:35:46;;;;;;;7.03;4.55;;;19.30;62.70;;;;;;5013107;28;20077;-67
2023/05/26 09:38:14;;;;;;;7.72;4.60;;;19.30;62.70;;;;;;5000027;28;20030;-67
2023/05/26 09:40:49;;;;;;;7.43;4.45;;;19.20;62.60;;;;;;4999650;28;20079;-67
2023/05/26 09:43:19;;;;;;;8.00;4.95;;;19.30;62.70;;;;;;5001515;28;20120;-66
2023/05/26 09:45:45;;;;;;;6.88;4.63;;;19.20;62.60;;;;;;5003042;28;20025;-66
2023/05/26 09:48:10;;;;;;;8.95;4.95;;;19.20;62.60;;;;;;5007202;28;20607;-67
2023/05/26 09:50:37;;;;;;;6.90;4.68;;;19.20;62.60;;;;;;5003482;28;20030;-68
2023/05/26 09:53:05;;;;;;;8.57;4.72;;;19.20;62.60;;;;;;5010199;28;20113;-67
2023/05/26 09:55:32;;;;;;;6.90;4.35;;;19.20;62.60;;;;;;5002100;28;20033;-68
2023/05/26 09:58:05;;;;;;;7.88;4.78;;;19.30;62.60;;;;;;5002214;28;20030;-67
2023/05/26 10:00:32;;;;;;;6.45;4.22;;;19.20;62.50;;;;;;5001811;28;20033;-68
2023/05/26 10:02:59;;;;;;;8.07;5.72;;;19.20;62.60;;;;;;4997167;28;20125;-67
2023/05/26 10:05:25;;;;;;;5.95;4.57;;;19.20;62.50;;;;;;4999555;28;20040;-67
2023/05/26 10:07:52;;;;;;;6.20;4.25;;;19.20;62.60;;;;;;5000356;28;20068;-68
2023/05/26 10:10:18;;;;;;;5.70;4.53;;;19.20;62.50;;;;;;5000743;28;20489;-67
2023/05/26 10:12:43;;;;;;;6.13;4.47;;;19.20;62.50;;;;;;5002548;28;20400;-65
2023/05/26 10:15:09;;;;;;;9.45;4.63;;;19.30;62.50;;;;;;5001077;28;20041;-67
2023/05/26 10:17:35;;;;;;;5.18;4.07;;;19.20;62.50;;;;;;5002929;28;20045;-67
2023/05/26 10:20:03;;;;;;;4.55;3.72;;;19.20;62.50;;;;;;5002704;28;20044;-67
2023/05/26 10:22:52;;;;;;;7.78;4.25;;;19.20;62.40;;;;;;5000519;28;20049;-67
2023/05/26 10:25:23;;;;;;;6.35;3.85;;;19.20;62.50;;;;;;5001161;28;20057;-68
2023/05/26 10:28:17;;;;;;;8.98;4.18;;;19.30;62.50;;;;;;5001418;28;20038;-68
2023/05/26 10:30:43;;;;;;;6.43;3.97;;;19.30;62.50;;;;;;4997758;28;20033;-67
2023/05/26 10:33:11;;;;;;;5.45;3.80;;;19.20;62.50;;;;;;4998450;28;20064;-68
2023/05/26 10:35:36;;;;;;;6.07;3.90;;;19.30;62.50;;;;;;4999626;28;20037;-67
2023/05/26 10:38:02;;;;;;;4.15;3.45;;;19.20;62.40;;;;;;5002808;28;20038;-68
2023/05/26 10:40:33;;;;;;;6.05;3.80;;;19.20;62.30;;;;;;4999905;28;20033;-66
2023/05/26 10:43:22;;;;;;;5.55;3.55;;;19.20;62.40;;;;;;5000302;28;20034;-67
2023/05/26 10:45:57;;;;;;;6.53;3.85;;;19.20;62.40;;;;;;5003341;28;20038;-66
2023/05/26 10:48:38;;;;;;;7.78;3.92;;;19.30;62.50;;;;;;5000405;28;20045;-65
2023/05/26 10:51:09;;;;;;;5.75;3.58;;;19.20;62.40;;;;;;5006130;28;20102;-68
2023/05/26 10:53:56;;;;;;;4.90;3.75;;;19.20;62.40;;;;;;5005537;28;20519;-68
2023/05/26 10:56:33;;;;;;;5.63;3.88;;;19.20;62.40;;;;;;5003169;28;20053;-66
2023/05/26 10:58:58;;;;;;;3.83;3.38;;;19.20;62.40;;;;;;5002782;28;20030;-67
2023/05/26 11:01:29;;;;;;;5.07;3.35;;;19.20;62.40;;;;;;5002109;28;20084;-68
2023/05/26 11:04:05;;;;;;;5.53;3.15;;;19.20;62.30;;;;;;4998000;28;20054;-67
2023/05/26 11:06:59;;;;;;;4.90;3.83;;;19.20;62.40;;;;;;5005974;28;20424;-67
2023/05/26 11:09:28;;;;;;;5.57;3.58;;;19.20;62.40;;;;;;5003788;28;20497;-68
2023/05/26 11:11:58;;;;;;;4.85;3.53;;;19.20;62.30;;;;;;5000029;28;20040;-68
2023/05/26 11:14:29;;;;;;;4.10;3.72;;;19.20;62.50;;;;;;5001467;28;20033;-68
2023/05/26 11:16:59;;;;;;;5.72;3.70;;;19.20;62.40;;;;;;5005652;28;20033;-66
2023/05/26 11:19:38;;;;;;;4.15;3.22;;;19.20;62.40;;;;;;5003908;28;20172;-65
2023/05/26 11:22:05;;;;;;;5.75;3.50;;;19.20;62.30;;;;;;5000371;28;20670;-67
2023/05/26 11:24:32;;;;;;;4.05;3.38;;;19.20;62.40;;;;;;5000020;28;20061;-68
2023/05/26 11:27:01;;;;;;;4.80;3.67;;;19.20;62.40;;;;;;5005995;28;20030;-68
2023/05/26 11:29:28;;;;;;;3.70;3.03;;;19.20;62.40;;;;;;4998334;28;20062;-66
2023/05/26 11:31:55;;;;;;;4.65;3.28;;;19.20;62.40;;;;;;4997451;28;20537;-67
2023/05/26 11:34:21;;;;;;;6.85;3.13;;;19.20;62.40;;;;;;5000307;28;20139;-69
2023/05/26 11:36:48;;;;;;;3.92;2.88;;;19.20;62.40;;;;;;5004074;28;20034;-65
2023/05/26 11:39:14;;;;;;;5.18;3.35;;;19.20;62.30;;;;;;5003667;28;20034;-67
2023/05/26 11:41:40;;;;;;;6.32;3.95;;;19.20;62.40;;;;;;5003078;28;20443;-68
2023/05/26 11:44:12;;;;;;;5.22;3.17;;;19.20;62.30;;;;;;5004806;28;20112;-68
2023/05/26 11:46:38;;;;;;;4.07;2.83;;;19.20;62.30;;;;;;5005388;28;20030;-68
2023/05/26 11:49:04;;;;;;;4.50;3.25;;;19.20;62.30;;;;;;5002445;28;20048;-68
2023/05/26 11:51:31;;;;;;;3.55;3.17;;;19.20;62.90;;;;;;5016098;28;20027;-67
2023/05/26 11:53:58;;;;;;;3.85;2.90;;;19.20;62.30;;;;;;5001637;28;20401;-67
2023/05/26 11:56:35;;;;;;;4.50;3.10;;;19.20;62.30;;;;;;5004063;28;20030;-67
2023/05/26 11:59:01;;;;;;;4.05;3.03;;;19.20;62.30;;;;;;5001993;28;20034;-67
2023/05/26 12:01:27;;;;;;;5.72;3.13;;;19.20;62.30;;;;;;5001398;28;20041;-68
2023/05/26 12:03:55;;;;;;;4.53;2.92;;;19.20;62.30;;;;;;5002068;28;20026;-68
2023/05/26 12:06:23;;;;;;;4.72;3.40;;;19.20;62.50;;;;;;5004217;28;20673;-68
2023/05/26 12:08:52;;;;;;;4.88;3.17;;;19.20;62.30;;;;;;5002224;28;20042;-68
2023/05/26 12:11:29;;;;;;;4.05;2.65;;;19.20;62.20;;;;;;5001702;28;20125;-66
2023/05/26 12:14:02;;;;;;;4.28;2.85;;;19.30;62.20;;;;;;4997410;28;20033;-65
2023/05/26 12:16:42;;;;;;;3.28;2.50;;;19.20;62.20;;;;;;5005119;28;21259;-67
2023/05/26 12:19:10;;;;;;;3.35;2.90;;;19.20;62.20;;;;;;5002441;28;20080;-67
2023/05/26 12:21:45;;;;;;;4.53;2.95;;;19.20;62.20;;;;;;5002525;28;20069;-66
2023/05/26 12:24:11;;;;;;;3.60;2.60;;;19.20;62.20;;;;;;5003795;28;20034;-67
2023/05/26 12:26:37;;;;;;;3.85;2.90;;;19.20;62.20;;;;;;5002418;28;20041;-68
2023/05/26 12:29:10;;;;;;;3.28;2.67;;;19.20;62.20;;;;;;4993075;28;20030;-66
2023/05/26 12:31:43;;;;;;;5.32;3.10;;;19.20;62.20;;;;;;5000556;28;20030;-67
2023/05/26 12:34:21;;;;;;;3.15;2.55;;;19.20;62.20;;;;;;5000184;28;20034;-67
2023/05/26 12:36:47;;;;;;;3.88;2.60;;;19.20;62.20;;;;;;5006155;28;20133;-68
2023/05/26 12:39:14;;;;;;;3.67;2.65;;;19.20;62.20;;;;;;5003310;28;20162;-68
2023/05/26 12:41:41;;;;;;;3.63;2.47;;;19.20;62.20;;;;;;5001538;28;20423;-68
2023/05/26 12:44:07;;;;;;;3.28;2.20;;;19.30;62.30;;;;;;5004365;28;20463;-66
2023/05/26 12:46:34;;;;;;;3.05;2.75;;;19.20;62.20;;;;;;5004091;28;20029;-67